sensor_id;sensor_type;location;lat;lon;timestamp;P1;durP1;ratioP1;P2;durP2;ratioP2
3997;SDS011;61314;53.444;9.902;2023-06-10T00:02:00;8.97;;;4.60;;
3997;SDS011;61314;53.444;9.902;2023-06-10T00:04:27;7.10;;;4.97;;
3997;SDS011;61314;53.444;9.902;2023-06-10T00:06:54;13.33;;;4.97;;
3997;SDS011;61314;53.444;9.902;2023-06-10T00:09:21;8.27;;;4.00;;
3997;SDS011;61314;53.444;9.902;2023-06-10T00:11:48;16.30;;;4.90;;
3997;SDS011;61314;53.444;9.902;2023-06-10T00:14:15;10.67;;;4.80;;
3997;SDS011;61314;53.444;9.902;2023-06-10T00:16:43;9.20;;;4.67;;
3997;SDS011;61314;53.444;9.902;2023-06-10T00:19:11;8.10;;;4.80;;
3997;SDS011;61314;53.444;9.902;2023-06-10T00:21:40;12.03;;;4.93;;
3997;SDS011;61314;53.444;9.902;2023-06-10T00:24:07;7.00;;;5.13;;
3997;SDS011;61314;53.444;9.902;2023-06-10T00:26:40;7.90;;;4.40;;
3997;SDS011;61314;53.444;9.902;2023-06-10T00:29:07;10.90;;;5.57;;
3997;SDS011;61314;53.444;9.902;2023-06-10T00:31:35;11.47;;;4.83;;
3997;SDS011;61314;53.444;9.902;2023-06-10T00:34:02;9.87;;;5.57;;
3997;SDS011;61314;53.444;9.902;2023-06-10T00:36:29;9.10;;;5.30;;
3997;SDS011;61314;53.444;9.902;2023-06-10T00:38:56;13.23;;;4.47;;
3997;SDS011;61314;53.444;9.902;2023-06-10T00:41:24;9.77;;;4.90;;
3997;SDS011;61314;53.444;9.902;2023-06-10T00:43:52;8.53;;;4.60;;
3997;SDS011;61314;53.444;9.902;2023-06-10T00:46:20;7.57;;;5.30;;
3997;SDS011;61314;53.444;9.902;2023-06-10T00:48:48;8.00;;;4.40;;
3997;SDS011;61314;53.444;9.902;2023-06-10T00:51:16;8.80;;;4.73;;
3997;SDS011;61314;53.444;9.902;2023-06-10T00:53:43;9.83;;;4.50;;
3997;SDS011;61314;53.444;9.902;2023-06-10T00:56:11;6.67;;;4.67;;
3997;SDS011;61314;53.444;9.902;2023-06-10T00:58:40;13.33;;;4.27;;
3997;SDS011;61314;53.444;9.902;2023-06-10T01:01:06;10.63;;;5.00;;
3997;SDS011;61314;53.444;9.902;2023-06-10T01:03:38;7.60;;;4.80;;
3997;SDS011;61314;53.444;9.902;2023-06-10T01:06:14;10.43;;;5.50;;
3997;SDS011;61314;53.444;9.902;2023-06-10T01:09:02;11.30;;;5.07;;
3997;SDS011;61314;53.444;9.902;2023-06-10T01:11:29;6.10;;;4.70;;
3997;SDS011;61314;53.444;9.902;2023-06-10T01:14:01;11.60;;;5.40;;
3997;SDS011;61314;53.444;9.902;2023-06-10T01:16:30;6.97;;;4.07;;
3997;SDS011;61314;53.444;9.902;2023-06-10T01:18:57;7.33;;;4.40;;
3997;SDS011;61314;53.444;9.902;2023-06-10T01:21:24;7.80;;;4.97;;
3997;SDS011;61314;53.444;9.902;2023-06-10T01:23:52;7.70;;;4.57;;
3997;SDS011;61314;53.444;9.902;2023-06-10T01:26:22;14.30;;;5.43;;
3997;SDS011;61314;53.444;9.902;2023-06-10T01:28:54;7.87;;;4.67;;
3997;SDS011;61314;53.444;9.902;2023-06-10T01:34:12;6.00;;;5.23;;
3997;SDS011;61314;53.444;9.902;2023-06-10T01:36:40;9.53;;;5.80;;
3997;SDS011;61314;53.444;9.902;2023-06-10T01:39:08;13.17;;;5.20;;
3997;SDS011;61314;53.444;9.902;2023-06-10T01:41:37;5.90;;;4.07;;
3997;SDS011;61314;53.444;9.902;2023-06-10T01:44:04;7.73;;;4.57;;
3997;SDS011;61314;53.444;9.902;2023-06-10T01:46:31;8.60;;;4.53;;
3997;SDS011;61314;53.444;9.902;2023-06-10T01:48:58;7.17;;;4.27;;
3997;SDS011;61314;53.444;9.902;2023-06-10T01:51:25;5.27;;;3.90;;
3997;SDS011;61314;53.444;9.902;2023-06-10T01:53:52;8.93;;;4.30;;
3997;SDS011;61314;53.444;9.902;2023-06-10T01:56:20;7.07;;;5.10;;
3997;SDS011;61314;53.444;9.902;2023-06-10T01:58:47;7.63;;;4.00;;
3997;SDS011;61314;53.444;9.902;2023-06-10T02:01:14;7.00;;;4.30;;
3997;SDS011;61314;53.444;9.902;2023-06-10T02:03:41;10.40;;;4.47;;
3997;SDS011;61314;53.444;9.902;2023-06-10T02:06:08;7.40;;;4.33;;
3997;SDS011;61314;53.444;9.902;2023-06-10T02:08:35;7.60;;;3.90;;
3997;SDS011;61314;53.444;9.902;2023-06-10T02:11:02;8.37;;;4.10;;
3997;SDS011;61314;53.444;9.902;2023-06-10T02:13:29;6.50;;;3.67;;
3997;SDS011;61314;53.444;9.902;2023-06-10T02:15:56;7.50;;;4.20;;
3997;SDS011;61314;53.444;9.902;2023-06-10T02:18:24;12.63;;;4.23;;
3997;SDS011;61314;53.444;9.902;2023-06-10T02:20:53;6.00;;;4.73;;
3997;SDS011;61314;53.444;9.902;2023-06-10T02:23:20;11.00;;;4.73;;
3997;SDS011;61314;53.444;9.902;2023-06-10T02:25:47;9.73;;;3.90;;
3997;SDS011;61314;53.444;9.902;2023-06-10T02:28:14;8.70;;;4.33;;
3997;SDS011;61314;53.444;9.902;2023-06-10T02:30:41;11.13;;;3.63;;
3997;SDS011;61314;53.444;9.902;2023-06-10T02:33:08;10.07;;;4.10;;
3997;SDS011;61314;53.444;9.902;2023-06-10T02:35:40;6.30;;;4.00;;
3997;SDS011;61314;53.444;9.902;2023-06-10T02:38:07;12.13;;;3.50;;
3997;SDS011;61314;53.444;9.902;2023-06-10T02:40:34;12.10;;;4.50;;
3997;SDS011;61314;53.444;9.902;2023-06-10T02:43:01;5.67;;;3.43;;
3997;SDS011;61314;53.444;9.902;2023-06-10T02:45:28;9.27;;;4.20;;
3997;SDS011;61314;53.444;9.902;2023-06-10T02:47:55;9.10;;;3.30;;
3997;SDS011;61314;53.444;9.902;2023-06-10T02:50:22;5.30;;;3.73;;
3997;SDS011;61314;53.444;9.902;2023-06-10T02:52:49;6.80;;;3.80;;
3997;SDS011;61314;53.444;9.902;2023-06-10T02:55:16;9.60;;;4.33;;
3997;SDS011;61314;53.444;9.902;2023-06-10T02:57:43;3.50;;;2.43;;
3997;SDS011;61314;53.444;9.902;2023-06-10T03:00:10;6.73;;;3.40;;
3997;SDS011;61314;53.444;9.902;2023-06-10T03:02:40;3.80;;;3.13;;
3997;SDS011;61314;53.444;9.902;2023-06-10T03:05:07;6.37;;;3.53;;
3997;SDS011;61314;53.444;9.902;2023-06-10T03:07:39;6.03;;;3.00;;
3997;SDS011;61314;53.444;9.902;2023-06-10T03:10:06;8.40;;;3.50;;
3997;SDS011;61314;53.444;9.902;2023-06-10T03:12:34;7.07;;;3.20;;
3997;SDS011;61314;53.444;9.902;2023-06-10T03:15:01;11.20;;;3.53;;
3997;SDS011;61314;53.444;9.902;2023-06-10T03:17:29;13.60;;;3.30;;
3997;SDS011;61314;53.444;9.902;2023-06-10T03:19:57;6.80;;;3.70;;
3997;SDS011;61314;53.444;9.902;2023-06-10T03:22:24;7.50;;;3.70;;
3997;SDS011;61314;53.444;9.902;2023-06-10T03:24:51;7.30;;;3.17;;
3997;SDS011;61314;53.444;9.902;2023-06-10T03:27:19;4.63;;;2.60;;
3997;SDS011;61314;53.444;9.902;2023-06-10T03:29:46;16.57;;;3.60;;
3997;SDS011;61314;53.444;9.902;2023-06-10T03:32:13;8.97;;;3.53;;
3997;SDS011;61314;53.444;9.902;2023-06-10T03:34:40;6.17;;;2.90;;
3997;SDS011;61314;53.444;9.902;2023-06-10T03:37:08;5.57;;;3.90;;
3997;SDS011;61314;53.444;9.902;2023-06-10T03:39:35;10.17;;;3.93;;
3997;SDS011;61314;53.444;9.902;2023-06-10T03:42:02;6.63;;;3.23;;
3997;SDS011;61314;53.444;9.902;2023-06-10T03:44:29;10.40;;;3.80;;
3997;SDS011;61314;53.444;9.902;2023-06-10T03:46:57;4.47;;;3.10;;
3997;SDS011;61314;53.444;9.902;2023-06-10T03:49:26;10.53;;;3.10;;
3997;SDS011;61314;53.444;9.902;2023-06-10T03:51:55;9.30;;;3.50;;
3997;SDS011;61314;53.444;9.902;2023-06-10T03:54:22;9.07;;;3.50;;
3997;SDS011;61314;53.444;9.902;2023-06-10T03:56:49;5.67;;;3.47;;
3997;SDS011;61314;53.444;9.902;2023-06-10T03:59:16;5.50;;;2.60;;
3997;SDS011;61314;53.444;9.902;2023-06-10T04:01:43;6.33;;;3.20;;
3997;SDS011;61314;53.444;9.902;2023-06-10T04:04:13;5.27;;;3.03;;
3997;SDS011;61314;53.444;9.902;2023-06-10T04:06:42;9.83;;;2.70;;
3997;SDS011;61314;53.444;9.902;2023-06-10T04:09:10;4.60;;;2.93;;
3997;SDS011;61314;53.444;9.902;2023-06-10T04:11:37;8.00;;;3.40;;
3997;SDS011;61314;53.444;9.902;2023-06-10T04:14:04;11.20;;;3.23;;
3997;SDS011;61314;53.444;9.902;2023-06-10T04:16:32;4.67;;;3.10;;
3997;SDS011;61314;53.444;9.902;2023-06-10T04:18:59;7.97;;;2.60;;
3997;SDS011;61314;53.444;9.902;2023-06-10T04:21:26;8.30;;;2.50;;
3997;SDS011;61314;53.444;9.902;2023-06-10T04:23:53;9.03;;;2.33;;
3997;SDS011;61314;53.444;9.902;2023-06-10T04:26:21;6.93;;;2.90;;
3997;SDS011;61314;53.444;9.902;2023-06-10T04:28:48;6.87;;;2.93;;
3997;SDS011;61314;53.444;9.902;2023-06-10T04:31:15;5.30;;;3.17;;
3997;SDS011;61314;53.444;9.902;2023-06-10T04:33:42;5.60;;;2.70;;
3997;SDS011;61314;53.444;9.902;2023-06-10T04:36:09;8.30;;;3.17;;
3997;SDS011;61314;53.444;9.902;2023-06-10T04:38:36;13.67;;;3.10;;
3997;SDS011;61314;53.444;9.902;2023-06-10T04:41:03;11.33;;;3.20;;
3997;SDS011;61314;53.444;9.902;2023-06-10T04:43:30;9.00;;;2.60;;
3997;SDS011;61314;53.444;9.902;2023-06-10T04:45:57;9.10;;;2.73;;
3997;SDS011;61314;53.444;9.902;2023-06-10T04:48:25;5.17;;;2.63;;
3997;SDS011;61314;53.444;9.902;2023-06-10T04:50:52;13.00;;;2.90;;
3997;SDS011;61314;53.444;9.902;2023-06-10T04:53:19;12.47;;;3.30;;
3997;SDS011;61314;53.444;9.902;2023-06-10T04:55:46;6.20;;;2.80;;
3997;SDS011;61314;53.444;9.902;2023-06-10T04:58:14;4.03;;;3.00;;
3997;SDS011;61314;53.444;9.902;2023-06-10T05:00:41;9.90;;;2.97;;
3997;SDS011;61314;53.444;9.902;2023-06-10T05:03:09;10.53;;;2.90;;
3997;SDS011;61314;53.444;9.902;2023-06-10T05:05:37;11.23;;;3.60;;
3997;SDS011;61314;53.444;9.902;2023-06-10T05:08:04;6.40;;;2.13;;
3997;SDS011;61314;53.444;9.902;2023-06-10T05:10:33;5.50;;;2.63;;
3997;SDS011;61314;53.444;9.902;2023-06-10T05:13:01;10.00;;;2.70;;
3997;SDS011;61314;53.444;9.902;2023-06-10T05:15:29;9.10;;;2.40;;
3997;SDS011;61314;53.444;9.902;2023-06-10T05:17:57;7.93;;;2.63;;
3997;SDS011;61314;53.444;9.902;2023-06-10T05:20:29;10.83;;;2.90;;
3997;SDS011;61314;53.444;9.902;2023-06-10T05:22:56;8.40;;;3.17;;
3997;SDS011;61314;53.444;9.902;2023-06-10T05:25:23;8.80;;;3.33;;
3997;SDS011;61314;53.444;9.902;2023-06-10T05:27:50;5.23;;;2.50;;
3997;SDS011;61314;53.444;9.902;2023-06-10T05:30:17;10.27;;;2.93;;
3997;SDS011;61314;53.444;9.902;2023-06-10T05:32:44;12.47;;;3.17;;
3997;SDS011;61314;53.444;9.902;2023-06-10T05:35:12;6.50;;;2.77;;
3997;SDS011;61314;53.444;9.902;2023-06-10T05:37:39;8.20;;;3.50;;
3997;SDS011;61314;53.444;9.902;2023-06-10T05:40:06;5.97;;;2.50;;
3997;SDS011;61314;53.444;9.902;2023-06-10T05:42:33;4.30;;;2.53;;
3997;SDS011;61314;53.444;9.902;2023-06-10T05:45:00;7.40;;;2.77;;
3997;SDS011;61314;53.444;9.902;2023-06-10T05:47:28;10.67;;;2.83;;
3997;SDS011;61314;53.444;9.902;2023-06-10T05:49:55;10.20;;;3.60;;
3997;SDS011;61314;53.444;9.902;2023-06-10T05:52:22;11.10;;;2.97;;
3997;SDS011;61314;53.444;9.902;2023-06-10T05:54:50;4.30;;;2.97;;
3997;SDS011;61314;53.444;9.902;2023-06-10T05:57:17;7.30;;;2.17;;
3997;SDS011;61314;53.444;9.902;2023-06-10T05:59:44;7.77;;;2.60;;
3997;SDS011;61314;53.444;9.902;2023-06-10T06:02:11;11.13;;;3.10;;
3997;SDS011;61314;53.444;9.902;2023-06-10T06:04:38;9.13;;;2.53;;
3997;SDS011;61314;53.444;9.902;2023-06-10T06:07:05;7.17;;;2.57;;
3997;SDS011;61314;53.444;9.902;2023-06-10T06:09:32;10.53;;;3.00;;
3997;SDS011;61314;53.444;9.902;2023-06-10T06:11:59;7.60;;;2.57;;
3997;SDS011;61314;53.444;9.902;2023-06-10T06:14:30;6.50;;;2.73;;
3997;SDS011;61314;53.444;9.902;2023-06-10T06:16:58;7.30;;;2.80;;
3997;SDS011;61314;53.444;9.902;2023-06-10T06:19:25;8.40;;;2.93;;
3997;SDS011;61314;53.444;9.902;2023-06-10T06:21:52;10.40;;;3.00;;
3997;SDS011;61314;53.444;9.902;2023-06-10T06:24:19;6.20;;;3.17;;
3997;SDS011;61314;53.444;9.902;2023-06-10T06:26:45;8.07;;;3.13;;
3997;SDS011;61314;53.444;9.902;2023-06-10T06:29:12;7.47;;;2.70;;
3997;SDS011;61314;53.444;9.902;2023-06-10T06:31:38;6.13;;;2.90;;
3997;SDS011;61314;53.444;9.902;2023-06-10T06:34:05;11.27;;;2.73;;
3997;SDS011;61314;53.444;9.902;2023-06-10T06:36:32;9.20;;;2.80;;
3997;SDS011;61314;53.444;9.902;2023-06-10T06:38:58;10.13;;;2.70;;
3997;SDS011;61314;53.444;9.902;2023-06-10T06:41:28;7.17;;;2.20;;
3997;SDS011;61314;53.444;9.902;2023-06-10T06:43:55;11.37;;;3.03;;
3997;SDS011;61314;53.444;9.902;2023-06-10T06:46:21;3.53;;;2.63;;
3997;SDS011;61314;53.444;9.902;2023-06-10T06:48:48;7.23;;;2.70;;
3997;SDS011;61314;53.444;9.902;2023-06-10T06:51:15;10.73;;;2.70;;
3997;SDS011;61314;53.444;9.902;2023-06-10T06:53:41;8.40;;;2.80;;
3997;SDS011;61314;53.444;9.902;2023-06-10T06:56:11;9.37;;;3.03;;
3997;SDS011;61314;53.444;9.902;2023-06-10T06:58:38;11.43;;;3.40;;
3997;SDS011;61314;53.444;9.902;2023-06-10T07:01:04;7.40;;;2.50;;
3997;SDS011;61314;53.444;9.902;2023-06-10T07:03:31;7.20;;;2.27;;
3997;SDS011;61314;53.444;9.902;2023-06-10T07:05:58;11.53;;;2.90;;
3997;SDS011;61314;53.444;9.902;2023-06-10T07:08:25;9.90;;;3.90;;
3997;SDS011;61314;53.444;9.902;2023-06-10T07:10:52;12.27;;;3.50;;
3997;SDS011;61314;53.444;9.902;2023-06-10T07:13:19;9.90;;;2.60;;
3997;SDS011;61314;53.444;9.902;2023-06-10T07:15:46;3.33;;;2.87;;
3997;SDS011;61314;53.444;9.902;2023-06-10T07:18:14;2.87;;;2.10;;
3997;SDS011;61314;53.444;9.902;2023-06-10T07:20:43;8.30;;;3.17;;
3997;SDS011;61314;53.444;9.902;2023-06-10T07:23:09;7.10;;;2.77;;
3997;SDS011;61314;53.444;9.902;2023-06-10T07:25:36;4.83;;;2.60;;
3997;SDS011;61314;53.444;9.902;2023-06-10T07:28:03;5.73;;;2.90;;
3997;SDS011;61314;53.444;9.902;2023-06-10T07:30:30;10.33;;;2.70;;
3997;SDS011;61314;53.444;9.902;2023-06-10T07:32:57;8.00;;;2.47;;
3997;SDS011;61314;53.444;9.902;2023-06-10T07:35:23;9.37;;;2.90;;
3997;SDS011;61314;53.444;9.902;2023-06-10T07:37:50;6.17;;;2.80;;
3997;SDS011;61314;53.444;9.902;2023-06-10T07:40:17;9.80;;;2.60;;
3997;SDS011;61314;53.444;9.902;2023-06-10T07:42:44;5.63;;;2.50;;
3997;SDS011;61314;53.444;9.902;2023-06-10T07:45:11;6.90;;;3.03;;
3997;SDS011;61314;53.444;9.902;2023-06-10T07:47:38;11.03;;;2.83;;
3997;SDS011;61314;53.444;9.902;2023-06-10T07:50:06;5.90;;;2.60;;
3997;SDS011;61314;53.444;9.902;2023-06-10T07:52:33;13.70;;;3.20;;
3997;SDS011;61314;53.444;9.902;2023-06-10T07:55:00;18.53;;;4.03;;
3997;SDS011;61314;53.444;9.902;2023-06-10T07:57:27;12.87;;;3.13;;
3997;SDS011;61314;53.444;9.902;2023-06-10T07:59:54;10.03;;;4.53;;
3997;SDS011;61314;53.444;9.902;2023-06-10T08:02:23;11.03;;;5.03;;
3997;SDS011;61314;53.444;9.902;2023-06-10T08:04:51;4.23;;;2.57;;
3997;SDS011;61314;53.444;9.902;2023-06-10T08:07:18;6.73;;;3.27;;
3997;SDS011;61314;53.444;9.902;2023-06-10T08:09:45;7.87;;;3.63;;
3997;SDS011;61314;53.444;9.902;2023-06-10T08:12:12;6.83;;;3.40;;
3997;SDS011;61314;53.444;9.902;2023-06-10T08:14:39;7.73;;;3.30;;
3997;SDS011;61314;53.444;9.902;2023-06-10T08:17:06;3.93;;;3.33;;
3997;SDS011;61314;53.444;9.902;2023-06-10T08:19:33;7.53;;;3.10;;
3997;SDS011;61314;53.444;9.902;2023-06-10T08:22:00;7.20;;;3.47;;
3997;SDS011;61314;53.444;9.902;2023-06-10T08:24:27;7.17;;;3.00;;
3997;SDS011;61314;53.444;9.902;2023-06-10T08:26:54;10.67;;;3.47;;
3997;SDS011;61314;53.444;9.902;2023-06-10T08:29:23;10.83;;;3.97;;
3997;SDS011;61314;53.444;9.902;2023-06-10T08:31:50;6.03;;;3.03;;
3997;SDS011;61314;53.444;9.902;2023-06-10T08:34:17;11.40;;;3.30;;
3997;SDS011;61314;53.444;9.902;2023-06-10T08:36:44;4.63;;;3.30;;
3997;SDS011;61314;53.444;9.902;2023-06-10T08:39:11;5.63;;;2.70;;
3997;SDS011;61314;53.444;9.902;2023-06-10T08:41:41;8.30;;;3.30;;
3997;SDS011;61314;53.444;9.902;2023-06-10T08:44:12;7.50;;;3.00;;
3997;SDS011;61314;53.444;9.902;2023-06-10T08:46:47;7.13;;;3.33;;
3997;SDS011;61314;53.444;9.902;2023-06-10T08:49:18;5.97;;;2.83;;
3997;SDS011;61314;53.444;9.902;2023-06-10T08:51:50;7.07;;;3.13;;
3997;SDS011;61314;53.444;9.902;2023-06-10T08:54:18;6.07;;;3.43;;
3997;SDS011;61314;53.444;9.902;2023-06-10T08:56:48;7.33;;;3.80;;
3997;SDS011;61314;53.444;9.902;2023-06-10T08:59:17;12.00;;;3.37;;
3997;SDS011;61314;53.444;9.902;2023-06-10T09:01:44;5.43;;;3.00;;
3997;SDS011;61314;53.444;9.902;2023-06-10T09:04:11;7.00;;;3.57;;
3997;SDS011;61314;53.444;9.902;2023-06-10T09:06:39;5.00;;;3.23;;
3997;SDS011;61314;53.444;9.902;2023-06-10T09:09:06;6.33;;;3.50;;
3997;SDS011;61314;53.444;9.902;2023-06-10T09:11:33;3.87;;;2.63;;
3997;SDS011;61314;53.444;9.902;2023-06-10T09:14:00;5.57;;;2.93;;
3997;SDS011;61314;53.444;9.902;2023-06-10T09:16:28;7.77;;;3.50;;
3997;SDS011;61314;53.444;9.902;2023-06-10T09:18:55;12.60;;;3.90;;
3997;SDS011;61314;53.444;9.902;2023-06-10T09:21:22;9.00;;;3.60;;
3997;SDS011;61314;53.444;9.902;2023-06-10T09:23:50;6.77;;;3.03;;
3997;SDS011;61314;53.444;9.902;2023-06-10T09:26:17;5.27;;;3.53;;
3997;SDS011;61314;53.444;9.902;2023-06-10T09:28:47;5.60;;;2.93;;
3997;SDS011;61314;53.444;9.902;2023-06-10T09:31:16;6.53;;;3.40;;
3997;SDS011;61314;53.444;9.902;2023-06-10T09:33:47;6.30;;;3.50;;
3997;SDS011;61314;53.444;9.902;2023-06-10T09:36:21;9.20;;;3.47;;
3997;SDS011;61314;53.444;9.902;2023-06-10T09:38:49;4.87;;;3.37;;
3997;SDS011;61314;53.444;9.902;2023-06-10T09:41:17;6.47;;;3.43;;
3997;SDS011;61314;53.444;9.902;2023-06-10T09:43:44;6.10;;;3.27;;
3997;SDS011;61314;53.444;9.902;2023-06-10T09:46:19;11.20;;;4.13;;
3997;SDS011;61314;53.444;9.902;2023-06-10T09:48:47;11.87;;;3.87;;
3997;SDS011;61314;53.444;9.902;2023-06-10T09:51:14;5.67;;;3.47;;
3997;SDS011;61314;53.444;9.902;2023-06-10T09:53:43;9.97;;;4.07;;
3997;SDS011;61314;53.444;9.902;2023-06-10T09:56:14;8.80;;;3.17;;
3997;SDS011;61314;53.444;9.902;2023-06-10T09:58:41;11.23;;;3.83;;
3997;SDS011;61314;53.444;9.902;2023-06-10T10:01:10;3.70;;;3.40;;
3997;SDS011;61314;53.444;9.902;2023-06-10T10:03:44;5.97;;;4.20;;
3997;SDS011;61314;53.444;9.902;2023-06-10T10:06:12;15.50;;;3.70;;
3997;SDS011;61314;53.444;9.902;2023-06-10T10:08:40;6.77;;;3.30;;
3997;SDS011;61314;53.444;9.902;2023-06-10T10:11:07;9.03;;;4.00;;
3997;SDS011;61314;53.444;9.902;2023-06-10T10:13:35;8.40;;;4.17;;
3997;SDS011;61314;53.444;9.902;2023-06-10T10:16:04;5.33;;;3.20;;
3997;SDS011;61314;53.444;9.902;2023-06-10T10:18:31;19.50;;;5.10;;
3997;SDS011;61314;53.444;9.902;2023-06-10T10:21:00;5.37;;;3.47;;
3997;SDS011;61314;53.444;9.902;2023-06-10T10:23:32;11.73;;;4.07;;
3997;SDS011;61314;53.444;9.902;2023-06-10T10:26:03;4.60;;;3.63;;
3997;SDS011;61314;53.444;9.902;2023-06-10T10:28:41;9.73;;;3.53;;
3997;SDS011;61314;53.444;9.902;2023-06-10T10:31:09;5.57;;;3.37;;
3997;SDS011;61314;53.444;9.902;2023-06-10T10:33:43;7.13;;;3.90;;
3997;SDS011;61314;53.444;9.902;2023-06-10T10:36:12;3.70;;;3.20;;
3997;SDS011;61314;53.444;9.902;2023-06-10T10:38:41;8.23;;;4.30;;
3997;SDS011;61314;53.444;9.902;2023-06-10T10:41:08;5.53;;;4.23;;
3997;SDS011;61314;53.444;9.902;2023-06-10T10:43:35;6.20;;;3.73;;
3997;SDS011;61314;53.444;9.902;2023-06-10T10:46:08;6.60;;;3.50;;
3997;SDS011;61314;53.444;9.902;2023-06-10T10:48:38;7.17;;;4.00;;
3997;SDS011;61314;53.444;9.902;2023-06-10T10:51:07;7.10;;;4.37;;
3997;SDS011;61314;53.444;9.902;2023-06-10T10:53:36;3.10;;;2.80;;
3997;SDS011;61314;53.444;9.902;2023-06-10T10:56:07;6.00;;;3.63;;
3997;SDS011;61314;53.444;9.902;2023-06-10T10:58:38;8.17;;;3.70;;
3997;SDS011;61314;53.444;9.902;2023-06-10T11:01:10;6.10;;;3.50;;
3997;SDS011;61314;53.444;9.902;2023-06-10T11:03:44;6.73;;;3.63;;
3997;SDS011;61314;53.444;9.902;2023-06-10T11:06:13;8.70;;;4.10;;
3997;SDS011;61314;53.444;9.902;2023-06-10T11:11:25;16.17;;;4.80;;
3997;SDS011;61314;53.444;9.902;2023-06-10T11:16:38;6.17;;;3.40;;
3997;SDS011;61314;53.444;9.902;2023-06-10T11:19:06;7.00;;;3.67;;
3997;SDS011;61314;53.444;9.902;2023-06-10T11:21:37;6.50;;;3.87;;
3997;SDS011;61314;53.444;9.902;2023-06-10T11:24:12;14.17;;;4.47;;
3997;SDS011;61314;53.444;9.902;2023-06-10T11:26:43;5.80;;;4.30;;
3997;SDS011;61314;53.444;9.902;2023-06-10T11:29:10;9.33;;;4.53;;
3997;SDS011;61314;53.444;9.902;2023-06-10T11:31:38;7.63;;;3.80;;
3997;SDS011;61314;53.444;9.902;2023-06-10T11:34:07;5.57;;;3.70;;
3997;SDS011;61314;53.444;9.902;2023-06-10T11:36:39;9.30;;;4.90;;
3997;SDS011;61314;53.444;9.902;2023-06-10T11:39:06;5.33;;;4.10;;
3997;SDS011;61314;53.444;9.902;2023-06-10T11:41:34;12.13;;;4.20;;
3997;SDS011;61314;53.444;9.902;2023-06-10T11:44:08;9.20;;;4.47;;
3997;SDS011;61314;53.444;9.902;2023-06-10T11:46:36;6.17;;;4.80;;
3997;SDS011;61314;53.444;9.902;2023-06-10T11:49:04;8.33;;;4.77;;
3997;SDS011;61314;53.444;9.902;2023-06-10T11:51:32;6.37;;;4.10;;
3997;SDS011;61314;53.444;9.902;2023-06-10T11:53:59;6.60;;;4.60;;
3997;SDS011;61314;53.444;9.902;2023-06-10T11:56:27;8.50;;;4.80;;
3997;SDS011;61314;53.444;9.902;2023-06-10T11:58:58;9.03;;;4.40;;
3997;SDS011;61314;53.444;9.902;2023-06-10T12:01:30;11.90;;;4.10;;
3997;SDS011;61314;53.444;9.902;2023-06-10T12:06:24;6.30;;;4.87;;
3997;SDS011;61314;53.444;9.902;2023-06-10T12:08:52;7.80;;;5.30;;
3997;SDS011;61314;53.444;9.902;2023-06-10T12:11:20;5.93;;;4.53;;
3997;SDS011;61314;53.444;9.902;2023-06-10T12:13:48;6.70;;;5.07;;
3997;SDS011;61314;53.444;9.902;2023-06-10T12:16:16;6.97;;;4.37;;
3997;SDS011;61314;53.444;9.902;2023-06-10T12:18:43;7.57;;;4.90;;
3997;SDS011;61314;53.444;9.902;2023-06-10T12:21:23;5.50;;;4.80;;
3997;SDS011;61314;53.444;9.902;2023-06-10T12:24:03;11.13;;;5.20;;
3997;SDS011;61314;53.444;9.902;2023-06-10T12:26:41;9.30;;;4.50;;
3997;SDS011;61314;53.444;9.902;2023-06-10T12:29:21;5.13;;;4.43;;
3997;SDS011;61314;53.444;9.902;2023-06-10T12:32:03;13.43;;;6.70;;
3997;SDS011;61314;53.444;9.902;2023-06-10T12:34:36;5.73;;;4.70;;
3997;SDS011;61314;53.444;9.902;2023-06-10T12:37:04;6.03;;;5.53;;
3997;SDS011;61314;53.444;9.902;2023-06-10T12:39:32;8.27;;;5.17;;
3997;SDS011;61314;53.444;9.902;2023-06-10T12:42:00;7.03;;;4.90;;
3997;SDS011;61314;53.444;9.902;2023-06-10T12:44:34;6.93;;;5.53;;
3997;SDS011;61314;53.444;9.902;2023-06-10T12:47:06;5.70;;;5.10;;
3997;SDS011;61314;53.444;9.902;2023-06-10T12:49:34;6.50;;;4.47;;
3997;SDS011;61314;53.444;9.902;2023-06-10T12:52:01;10.10;;;5.77;;
3997;SDS011;61314;53.444;9.902;2023-06-10T12:54:28;8.37;;;5.30;;
3997;SDS011;61314;53.444;9.902;2023-06-10T12:56:56;6.37;;;5.03;;
3997;SDS011;61314;53.444;9.902;2023-06-10T12:59:23;8.00;;;4.50;;
3997;SDS011;61314;53.444;9.902;2023-06-10T13:01:53;8.37;;;5.83;;
3997;SDS011;61314;53.444;9.902;2023-06-10T13:04:20;9.40;;;4.57;;
3997;SDS011;61314;53.444;9.902;2023-06-10T13:06:48;9.33;;;5.13;;
3997;SDS011;61314;53.444;9.902;2023-06-10T13:09:15;6.80;;;4.80;;
3997;SDS011;61314;53.444;9.902;2023-06-10T13:11:42;7.50;;;5.07;;
3997;SDS011;61314;53.444;9.902;2023-06-10T13:14:10;9.73;;;5.20;;
3997;SDS011;61314;53.444;9.902;2023-06-10T13:16:37;9.47;;;4.87;;
3997;SDS011;61314;53.444;9.902;2023-06-10T13:19:05;5.50;;;5.00;;
3997;SDS011;61314;53.444;9.902;2023-06-10T13:21:32;8.07;;;4.80;;
3997;SDS011;61314;53.444;9.902;2023-06-10T13:24:00;10.70;;;5.00;;
3997;SDS011;61314;53.444;9.902;2023-06-10T13:26:27;6.83;;;4.90;;
3997;SDS011;61314;53.444;9.902;2023-06-10T13:28:54;9.43;;;4.70;;
3997;SDS011;61314;53.444;9.902;2023-06-10T13:31:21;5.63;;;4.30;;
3997;SDS011;61314;53.444;9.902;2023-06-10T13:33:48;9.43;;;5.30;;
3997;SDS011;61314;53.444;9.902;2023-06-10T13:36:15;4.93;;;4.57;;
3997;SDS011;61314;53.444;9.902;2023-06-10T13:38:42;6.83;;;4.50;;
3997;SDS011;61314;53.444;9.902;2023-06-10T13:41:09;7.07;;;4.67;;
3997;SDS011;61314;53.444;9.902;2023-06-10T13:43:36;7.13;;;4.90;;
3997;SDS011;61314;53.444;9.902;2023-06-10T13:46:03;8.07;;;5.30;;
3997;SDS011;61314;53.444;9.902;2023-06-10T13:48:31;8.70;;;5.47;;
3997;SDS011;61314;53.444;9.902;2023-06-10T13:50:58;14.47;;;5.87;;
3997;SDS011;61314;53.444;9.902;2023-06-10T13:53:26;7.83;;;5.30;;
3997;SDS011;61314;53.444;9.902;2023-06-10T13:55:53;7.40;;;5.30;;
3997;SDS011;61314;53.444;9.902;2023-06-10T13:58:20;8.47;;;5.30;;
3997;SDS011;61314;53.444;9.902;2023-06-10T14:00:47;21.33;;;5.10;;
3997;SDS011;61314;53.444;9.902;2023-06-10T14:03:14;11.63;;;5.10;;
3997;SDS011;61314;53.444;9.902;2023-06-10T14:05:41;9.00;;;5.50;;
3997;SDS011;61314;53.444;9.902;2023-06-10T14:08:08;6.13;;;4.80;;
3997;SDS011;61314;53.444;9.902;2023-06-10T14:10:35;6.00;;;4.73;;
3997;SDS011;61314;53.444;9.902;2023-06-10T14:13:02;6.70;;;4.37;;
3997;SDS011;61314;53.444;9.902;2023-06-10T14:15:29;5.17;;;4.57;;
3997;SDS011;61314;53.444;9.902;2023-06-10T14:17:56;7.60;;;5.13;;
3997;SDS011;61314;53.444;9.902;2023-06-10T14:20:23;5.37;;;4.60;;
3997;SDS011;61314;53.444;9.902;2023-06-10T14:22:52;9.57;;;5.97;;
3997;SDS011;61314;53.444;9.902;2023-06-10T14:25:19;5.70;;;5.00;;
3997;SDS011;61314;53.444;9.902;2023-06-10T14:27:46;7.07;;;5.80;;
3997;SDS011;61314;53.444;9.902;2023-06-10T14:30:13;5.80;;;4.87;;
3997;SDS011;61314;53.444;9.902;2023-06-10T14:32:41;9.03;;;4.87;;
3997;SDS011;61314;53.444;9.902;2023-06-10T14:35:09;7.73;;;5.17;;
3997;SDS011;61314;53.444;9.902;2023-06-10T14:37:37;6.77;;;4.40;;
3997;SDS011;61314;53.444;9.902;2023-06-10T14:40:04;5.20;;;4.17;;
3997;SDS011;61314;53.444;9.902;2023-06-10T14:42:32;5.60;;;4.70;;
3997;SDS011;61314;53.444;9.902;2023-06-10T14:44:59;5.90;;;4.87;;
3997;SDS011;61314;53.444;9.902;2023-06-10T14:47:26;11.23;;;4.57;;
3997;SDS011;61314;53.444;9.902;2023-06-10T14:49:54;8.73;;;4.27;;
3997;SDS011;61314;53.444;9.902;2023-06-10T14:52:21;11.80;;;4.37;;
3997;SDS011;61314;53.444;9.902;2023-06-10T14:54:48;6.03;;;4.30;;
3997;SDS011;61314;53.444;9.902;2023-06-10T14:57:15;11.67;;;4.40;;
3997;SDS011;61314;53.444;9.902;2023-06-10T14:59:42;6.30;;;4.30;;
3997;SDS011;61314;53.444;9.902;2023-06-10T15:02:09;9.20;;;4.27;;
3997;SDS011;61314;53.444;9.902;2023-06-10T15:04:36;6.23;;;3.97;;
3997;SDS011;61314;53.444;9.902;2023-06-10T15:07:03;6.20;;;4.63;;
3997;SDS011;61314;53.444;9.902;2023-06-10T15:09:31;6.57;;;4.07;;
3997;SDS011;61314;53.444;9.902;2023-06-10T15:11:58;6.57;;;3.83;;
3997;SDS011;61314;53.444;9.902;2023-06-10T15:14:26;13.33;;;5.80;;